EST,Max TemperatureF,Mean TemperatureF,Min TemperatureF,Max Dew PointF,MeanDew PointF,Min DewpointF,Max Humidity, Mean Humidity, Min Humidity, Max Sea Level PressureIn, Mean Sea Level PressureIn, Min Sea Level PressureIn, Max VisibilityMiles, Mean VisibilityMiles, Min VisibilityMiles, Max Wind SpeedMPH, Mean Wind SpeedMPH, Max Gust SpeedMPH,PrecipitationIn, CloudCover, Events, WindDirDegrees
2012-1-1,62,49,35,55,40,24,93,68,43,30.23,30.05,29.95,10,8,1,29,10,35,0.48,5,Rain,274
2012-1-2,41,33,24,22,15,8,68,52,35,30.29,30.21,30.13,10,9,2,23,12,31,T,4,Rain-Snow,286
2012-1-3,30,26,21,13,10,8,68,55,42,30.47,30.40,30.30,10,10,9,16,7,22,T,3,Snow,276
2012-1-4,46,32,18,22,15,9,80,54,27,30.40,30.27,30.13,10,10,10,21,9,25,0.00,0,,229
2012-1-5,52,41,30,32,25,21,85,58,30,30.23,30.16,30.12,10,10,10,13,6,15,0.00,0,,216
2012-1-6,60,45,29,38,28,24,82,56,29,30.16,30.07,30.00,10,10,10,17,6,21,0.00,1,,225
2012-1-7,60,56,51,55,52,38,100,77,54,30.11,30.03,29.95,10,7,1,16,8,21,0.36,8,Rain-Thunderstorm,245
2012-1-8,53,49,45,52,44,38,100,83,66,30.22,30.17,30.11,10,8,0,8,5,10,0.07,8,Fog-Rain,12
2012-1-9,51,48,45,52,47,44,100,97,93,30.17,30.12,30.07,10,2,0,9,2,12,0.69,8,Fog-Rain,235
2012-1-10,52,48,44,49,45,40,100,86,71,30.13,30.05,29.86,10,6,0,10,6,14,T,7,Fog-Rain,32
2012-1-11,57,52,46,54,48,41,100,89,77,29.83,29.57,29.44,10,4,1,26,11,31,0.81,8,Rain-Thunderstorm,300
2012-1-12,53,41,28,46,39,18,93,78,63,29.86,29.64,29.50,10,7,2,35,17,46,0.13,8,Rain-Snow,226
2012-1-13,31,27,23,21,17,11,81,67,53,30.19,30.04,29.88,10,8,2,26,13,33,T,8,Snow,245
2012-1-14,43,33,23,26,19,15,81,57,33,30.26,30.17,30.05,10,10,10,17,7,22,T,3,,225
2012-1-15,45,36,27,25,24,22,75,58,41,30.48,30.40,30.18,10,10,10,16,4,23,0.00,1,,262
2012-1-16,56,42,27,32,27,23,92,62,32,30.44,30.33,30.18,10,10,10,17,4,24,T,5,,216
2012-1-17,61,52,42,56,49,32,93,66,38,30.16,29.98,29.88,10,8,2,31,18,39,0.47,8,Rain,224
2012-1-18,43,36,29,37,25,21,82,69,56,30.24,30.16,30.10,10,10,10,15,7,17,0.00,5,,356
2012-1-19,44,34,23,29,25,20,88,71,53,30.15,30.09,30.02,10,10,8,13,2,14,0.00,2,,266
2012-1-20,49,42,34,45,38,30,92,77,61,30.10,30.01,29.94,10,7,2,8,3,9,0.08,8,Rain,19
2012-1-21,55,48,41,54,47,37,100,91,82,30.09,29.90,29.79,10,5,1,12,7,18,0.89,8,Rain-Thunderstorm,307
2012-1-22,54,48,42,47,43,39,100,86,71,30.17,30.09,29.98,10,7,0,8,2,12,T,8,Fog,41
2012-1-23,65,58,50,54,51,47,100,84,67,30.03,29.92,29.85,10,8,2,29,11,38,1.27,5,Rain,241
2012-1-24,58,48,37,47,36,32,93,67,40,30.28,30.19,30.04,10,10,10,12,3,15,0.00,0,,228
2012-1-25,63,49,34,40,36,32,96,66,36,30.27,30.18,30.06,10,10,10,7,2,10,0.00,3,,29
2012-1-26,65,56,46,57,51,40,100,82,63,30.04,29.81,29.55,10,5,1,32,4,43,0.31,7,Rain-Thunderstorm,57
2012-1-27,59,48,37,56,42,33,93,75,56,30.08,29.86,29.58,10,10,3,30,9,40,0.13,6,Rain,253
2012-1-28,53,42,31,39,29,17,100,66,32,30.33,30.18,30.03,10,10,6,20,6,26,0.00,2,,266
2012-1-29,50,38,25,25,20,14,88,56,24,30.42,30.35,30.30,10,10,10,23,7,26,0.00,0,,216
2012-1-30,58,44,30,24,22,18,61,43,24,30.42,30.34,30.30,10,10,10,18,8,23,0.00,0,,226
2012-1-31,64,48,31,31,26,21,78,49,20,30.38,30.29,30.21,10,10,10,20,4,23,0.00,3,,236